Time;durP1;ratioP1;P1;durP2;ratioP2;P2;SDS_P1;SDS_P2;PMS_P1;PMS_P2;Temp;Humidity;BMP_temperature;BMP_pressure;BME280_temperature;BME280_humidity;BME280_pressure;Samples;Min_cycle;Max_cycle;Signal;HPM_P1;HPM_P2
2022/04/05 00:01:16;;;;;;;0.00;0.00;;;11.50;99.90;;;;;;5134456;27;20030;-71
2022/04/05 00:03:42;;;;;;;0.00;0.00;;;11.70;99.90;;;;;;5116002;27;20019;-72
2022/04/05 00:06:08;;;;;;;0.00;0.00;;;11.50;99.90;;;;;;5134161;27;20056;-72
2022/04/05 00:08:35;;;;;;;0.00;0.00;;;11.50;99.90;;;;;;5116035;27;20180;-72
2022/04/05 00:11:01;;;;;;;0.00;0.00;;;11.40;99.90;;;;;;5134314;27;20023;-71
2022/04/05 00:13:27;;;;;;;0.63;0.63;;;11.40;99.90;;;;;;5115915;27;20067;-72
2022/04/05 00:15:53;;;;;;;0.10;0.10;;;11.40;99.90;;;;;;5134314;27;20023;-72
2022/04/05 00:18:19;;;;;;;0.00;0.00;;;11.30;99.90;;;;;;5115733;27;20036;-72
2022/04/05 00:20:46;;;;;;;0.00;0.00;;;11.40;99.90;;;;;;5115708;27;20027;-72
2022/04/05 00:23:12;;;;;;;0.00;0.00;;;11.50;99.90;;;;;;5134222;27;20055;-72
2022/04/05 00:25:38;;;;;;;0.00;0.00;;;11.50;99.90;;;;;;5134777;27;20031;-72
2022/04/05 00:28:04;;;;;;;0.00;0.00;;;11.40;99.90;;;;;;5115631;27;20045;-72
2022/04/05 00:30:30;;;;;;;0.00;0.00;;;11.30;99.90;;;;;;5115079;27;20076;-72
2022/04/05 00:32:57;;;;;;;0.00;0.00;;;11.20;99.90;;;;;;5116010;27;20079;-72
2022/04/05 00:35:23;;;;;;;0.00;0.00;;;11.10;99.90;;;;;;5112453;28;20079;-72
2022/04/05 00:37:50;;;;;;;0.00;0.00;;;11.10;99.90;;;;;;5114227;28;20026;-72
2022/04/05 00:40:16;;;;;;;0.00;0.00;;;11.20;99.90;;;;;;5094986;28;20028;-72
2022/04/05 00:42:42;;;;;;;0.00;0.00;;;11.40;99.90;;;;;;5086964;27;20056;-70
2022/04/05 00:45:10;;;;;;;0.00;0.00;;;11.50;99.90;;;;;;5106563;28;20089;-72
2022/04/05 00:47:37;;;;;;;0.00;0.00;;;11.40;99.90;;;;;;5097253;28;20038;-73
2022/04/05 00:50:05;;;;;;;0.10;0.10;;;11.30;99.90;;;;;;5094908;28;20473;-71
2022/04/05 00:52:31;;;;;;;0.00;0.00;;;11.20;99.90;;;;;;5107124;27;20020;-72
2022/04/05 00:54:59;;;;;;;0.00;0.00;;;11.40;99.90;;;;;;5110530;28;20027;-72
2022/04/05 00:57:28;;;;;;;0.00;0.00;;;11.50;99.90;;;;;;5100686;27;20108;-72
2022/04/05 00:59:56;;;;;;;0.00;0.00;;;11.30;99.90;;;;;;5116028;27;20488;-71
2022/04/05 01:02:27;;;;;;;0.00;0.00;;;11.40;99.90;;;;;;5098684;28;20028;-72
2022/04/05 01:04:53;;;;;;;0.00;0.00;;;11.30;99.90;;;;;;5085918;28;20035;-72
2022/04/05 01:07:22;;;;;;;0.00;0.00;;;11.50;99.90;;;;;;5097660;28;20035;-72
2022/04/05 01:09:53;;;;;;;0.00;0.00;;;11.30;99.90;;;;;;5099345;28;20035;-72
2022/04/05 01:12:21;;;;;;;0.00;0.00;;;11.40;99.90;;;;;;5105018;28;20024;-72
2022/04/05 01:14:48;;;;;;;0.00;0.00;;;11.80;99.90;;;;;;5086249;28;20055;-72
2022/04/05 01:17:16;;;;;;;0.00;0.00;;;12.10;99.90;;;;;;5111897;28;20027;-72
2022/04/05 01:19:42;;;;;;;0.00;0.00;;;12.10;99.90;;;;;;5100356;28;20023;-72
2022/04/05 01:22:08;;;;;;;0.00;0.00;;;12.30;99.90;;;;;;5101211;28;20478;-72
2022/04/05 01:24:34;;;;;;;0.00;0.00;;;12.50;99.90;;;;;;5097626;28;20020;-73
2022/04/05 01:27:06;;;;;;;2.17;1.65;;;12.90;99.90;;;;;;5101545;28;20019;-73
2022/04/05 01:29:33;;;;;;;0.00;0.00;;;13.20;99.90;;;;;;5084077;28;20028;-73
2022/04/05 01:32:08;;;;;;;0.00;0.00;;;13.70;98.50;;;;;;5107484;28;20019;-73
2022/04/05 01:34:36;;;;;;;0.00;0.00;;;14.30;98.10;;;;;;5101429;28;20027;-73
2022/04/05 01:37:08;;;;;;;0.00;0.00;;;14.80;97.40;;;;;;5102161;28;20016;-73
2022/04/05 01:39:36;;;;;;;0.00;0.00;;;15.50;92.90;;;;;;5088044;28;20054;-73
2022/04/05 01:42:12;;;;;;;0.00;0.00;;;16.00;91.20;;;;;;5104364;27;20042;-73
2022/04/05 01:44:40;;;;;;;21.65;2.50;;;16.70;86.80;;;;;;5091669;28;20127;-74
2022/04/05 01:47:09;;;;;;;0.00;0.00;;;17.30;87.90;;;;;;5111121;27;20046;-73
2022/04/05 01:49:36;;;;;;;0.10;0.10;;;18.10;79.90;;;;;;5120611;27;20023;-74
2022/04/05 01:52:03;;;;;;;0.00;0.00;;;18.90;73.20;;;;;;5137027;27;20415;-73
2022/04/05 01:54:29;;;;;;;2.45;2.35;;;19.10;70.80;;;;;;5099073;27;20023;-73
2022/04/05 01:56:56;;;;;;;3.50;3.30;;;19.40;70.80;;;;;;5101054;28;20114;-73
2022/04/05 01:59:25;;;;;;;1.10;1.10;;;19.90;65.40;;;;;;5116373;28;20423;-73
2022/04/05 02:01:52;;;;;;;0.00;0.00;;;20.90;62.20;;;;;;5133979;27;20027;-73
2022/04/05 02:04:19;;;;;;;0.43;0.43;;;21.60;62.40;;;;;;5130927;27;20384;-73
2022/04/05 02:06:46;;;;;;;0.00;0.00;;;21.60;56.30;;;;;;5116139;28;20490;-73
2022/04/05 02:09:14;;;;;;;0.17;0.17;;;21.70;53.70;;;;;;5097696;28;20028;-73
2022/04/05 02:11:42;;;;;;;0.00;0.00;;;22.30;54.90;;;;;;5097781;28;20475;-73
2022/04/05 02:14:08;;;;;;;0.00;0.00;;;23.00;52.90;;;;;;5099759;27;20370;-74
2022/04/05 02:16:34;;;;;;;1.45;0.57;;;23.30;47.90;;;;;;5111346;27;20030;-75
2022/04/05 02:19:00;;;;;;;0.00;0.00;;;23.60;46.80;;;;;;5096740;28;20023;-75
2022/04/05 02:21:26;;;;;;;0.30;0.30;;;23.60;47.30;;;;;;5115177;28;20104;-73
2022/04/05 02:23:52;;;;;;;0.00;0.00;;;23.80;43.10;;;;;;5098684;28;20091;-74
2022/04/05 02:26:18;;;;;;;0.00;0.00;;;25.00;42.50;;;;;;5117912;27;20495;-74
2022/04/05 02:28:45;;;;;;;0.00;0.00;;;25.60;40.30;;;;;;5106226;28;20428;-73
2022/04/05 02:31:11;;;;;;;0.08;0.08;;;26.40;41.20;;;;;;5117443;27;20016;-74
2022/04/05 02:33:37;;;;;;;0.00;0.00;;;26.70;39.40;;;;;;5096125;27;20015;-75
2022/04/05 02:36:03;;;;;;;0.00;0.00;;;27.10;37.10;;;;;;5097215;27;20539;-73
2022/04/05 02:38:34;;;;;;;29.23;18.65;;;27.10;39.20;;;;;;5094293;27;20034;-74
2022/04/05 02:41:04;;;;;;;1.92;1.85;;;27.30;36.50;;;;;;5106784;27;20028;-74
2022/04/05 02:43:30;;;;;;;0.00;0.00;;;26.90;34.80;;;;;;5099498;28;20412;-74
2022/04/05 02:45:58;;;;;;;0.00;0.00;;;24.30;35.90;;;;;;5086116;28;20081;-74
2022/04/05 02:48:25;;;;;;;0.47;0.47;;;23.40;38.80;;;;;;5096267;27;20030;-75
2022/04/05 02:50:51;;;;;;;12.52;11.82;;;23.30;37.90;;;;;;5107924;27;20020;-72
2022/04/05 02:53:17;;;;;;;0.15;0.15;;;23.20;37.90;;;;;;5092692;28;20112;-72
2022/04/05 02:55:47;;;;;;;0.13;0.13;;;23.10;37.10;;;;;;5106590;27;20377;-72
2022/04/05 02:58:13;;;;;;;0.30;0.30;;;23.00;38.20;;;;;;5094573;27;20499;-71
2022/04/05 03:00:39;;;;;;;0.00;0.00;;;22.60;38.50;;;;;;5080366;28;20069;-72
2022/04/05 03:03:07;;;;;;;1.10;0.73;;;22.10;38.30;;;;;;5102170;27;20568;-71
2022/04/05 03:05:33;;;;;;;0.10;0.10;;;21.80;38.80;;;;;;5112264;27;20093;-72
2022/04/05 03:07:59;;;;;;;0.47;0.47;;;21.70;38.70;;;;;;5102178;28;20040;-72
2022/04/05 03:10:26;;;;;;;0.00;0.00;;;21.40;39.00;;;;;;5102673;28;20036;-73
2022/04/05 03:12:52;;;;;;;0.00;0.00;;;21.40;40.00;;;;;;5097887;28;20022;-72
2022/04/05 03:15:19;;;;;;;0.10;0.10;;;21.50;40.10;;;;;;5103929;27;20023;-73
2022/04/05 03:17:46;;;;;;;14.82;8.18;;;21.00;42.50;;;;;;5113002;27;20015;-74
2022/04/05 03:20:14;;;;;;;3.55;3.35;;;21.20;42.20;;;;;;5089586;28;20050;-73
2022/04/05 03:22:41;;;;;;;0.38;0.38;;;21.30;40.90;;;;;;5094896;27;20024;-73
2022/04/05 03:25:08;;;;;;;3.35;3.15;;;21.10;41.70;;;;;;5123872;27;20028;-74
2022/04/05 03:27:40;;;;;;;1.42;1.42;;;21.10;42.40;;;;;;5112127;27;20023;-74
2022/04/05 03:30:12;;;;;;;5.05;4.63;;;21.10;41.90;;;;;;5119272;27;20031;-71
2022/04/05 03:32:39;;;;;;;1.65;1.55;;;20.90;42.70;;;;;;5105229;27;21706;-71
2022/04/05 03:35:06;;;;;;;5.18;2.10;;;21.10;42.40;;;;;;5101219;27;20019;-75
2022/04/05 03:37:33;;;;;;;0.82;0.82;;;21.20;42.50;;;;;;5128547;27;20512;-74
2022/04/05 03:39:59;;;;;;;0.57;0.57;;;20.90;42.10;;;;;;5117474;27;20031;-72
2022/04/05 03:42:26;;;;;;;8.15;2.78;;;20.90;42.30;;;;;;5125500;27;20209;-71
2022/04/05 03:44:52;;;;;;;8.18;2.03;;;21.10;42.90;;;;;;5104664;27;20016;-72
2022/04/05 03:47:18;;;;;;;2.25;2.05;;;21.30;43.30;;;;;;5118748;27;20035;-72
2022/04/05 03:49:44;;;;;;;1.73;1.23;;;21.30;44.00;;;;;;5098158;27;20023;-71
2022/04/05 03:52:11;;;;;;;2.80;2.58;;;21.30;44.80;;;;;;5094808;27;20042;-72
2022/04/05 03:54:37;;;;;;;3.30;2.70;;;21.40;44.70;;;;;;5091237;27;20059;-73
2022/04/05 03:57:03;;;;;;;17.20;11.38;;;21.40;43.50;;;;;;5114864;27;20031;-71
2022/04/05 03:59:29;;;;;;;13.07;9.85;;;21.40;43.20;;;;;;5111497;27;20031;-71
2022/04/05 04:01:56;;;;;;;0.20;0.20;;;21.50;43.30;;;;;;5094346;27;20052;-70
2022/04/05 04:04:22;;;;;;;0.05;0.05;;;21.20;42.60;;;;;;5088996;27;20023;-72
2022/04/05 04:06:48;;;;;;;4.93;4.45;;;21.30;43.00;;;;;;5105959;27;20424;-72
2022/04/05 04:09:17;;;;;;;5.53;5.05;;;21.60;41.20;;;;;;5117910;27;20035;-72
2022/04/05 04:11:44;;;;;;;0.00;0.00;;;21.80;41.20;;;;;;5114940;27;20025;-71
2022/04/05 04:14:11;;;;;;;0.52;0.52;;;21.80;40.60;;;;;;5146532;27;20061;-72
2022/04/05 04:16:37;;;;;;;0.00;0.00;;;21.80;41.30;;;;;;5113332;27;20062;-71
2022/04/05 04:19:03;;;;;;;0.00;0.00;;;21.90;40.70;;;;;;5108676;27;20444;-71
2022/04/05 04:21:29;;;;;;;4.95;4.65;;;22.00;41.20;;;;;;5139015;27;20039;-72
2022/04/05 04:23:55;;;;;;;3.47;3.30;;;22.20;40.90;;;;;;5119179;27;20046;-72
2022/04/05 04:26:21;;;;;;;0.00;0.00;;;22.20;41.80;;;;;;5137385;27;20035;-71
2022/04/05 04:28:51;;;;;;;5.68;5.47;;;22.40;41.30;;;;;;5106930;27;20034;-72
2022/04/05 04:31:17;;;;;;;6.22;4.30;;;22.60;39.20;;;;;;5138467;27;20023;-69
2022/04/05 04:33:43;;;;;;;0.15;0.15;;;22.40;39.50;;;;;;5137756;27;20015;-70
2022/04/05 04:36:10;;;;;;;0.00;0.00;;;22.40;40.00;;;;;;5115768;27;20484;-71
2022/04/05 04:38:36;;;;;;;1.38;1.27;;;22.40;39.80;;;;;;5125249;27;20027;-70
2022/04/05 04:41:02;;;;;;;5.45;5.18;;;22.70;39.40;;;;;;5122191;27;20030;-72
2022/04/05 04:43:28;;;;;;;0.43;0.40;;;22.90;38.90;;;;;;5123322;27;20028;-72
2022/04/05 04:45:55;;;;;;;6.18;4.25;;;22.80;38.80;;;;;;5112680;27;20022;-72
2022/04/05 04:48:22;;;;;;;19.17;17.63;;;23.00;39.30;;;;;;5126680;27;20034;-72
2022/04/05 04:50:52;;;;;;;0.70;0.65;;;22.90;38.60;;;;;;5121915;27;20038;-73
2022/04/05 04:53:18;;;;;;;0.20;0.20;;;23.00;38.50;;;;;;5126461;27;20075;-74
2022/04/05 04:55:44;;;;;;;13.60;12.25;;;23.20;38.00;;;;;;5101279;27;20032;-75
2022/04/05 04:58:10;;;;;;;1.13;0.73;;;23.20;38.30;;;;;;5119879;27;20023;-74
2022/04/05 05:00:36;;;;;;;25.98;16.45;;;23.50;38.10;;;;;;5119319;27;20126;-74
2022/04/05 05:03:02;;;;;;;1.13;1.13;;;23.50;37.40;;;;;;5119045;27;20034;-75
2022/04/05 05:05:28;;;;;;;9.80;2.78;;;23.60;38.00;;;;;;5125098;27;20571;-75
2022/04/05 05:07:54;;;;;;;0.03;0.03;;;23.60;36.40;;;;;;5124666;27;20047;-74
2022/04/05 05:10:22;;;;;;;1.15;1.15;;;23.60;36.20;;;;;;5117684;27;20031;-75
2022/04/05 05:12:48;;;;;;;0.10;0.10;;;23.60;36.30;;;;;;5105331;27;20034;-73
2022/04/05 05:15:18;;;;;;;11.57;6.40;;;23.70;36.60;;;;;;5131754;27;20033;-74
2022/04/05 05:17:48;;;;;;;4.72;3.33;;;23.90;36.30;;;;;;5121768;27;20078;-73
2022/04/05 05:20:16;;;;;;;3.40;1.45;;;23.60;35.70;;;;;;5104591;27;20633;-75
2022/04/05 05:22:43;;;;;;;3.13;2.75;;;23.40;35.00;;;;;;5099200;27;20575;-75
2022/04/05 05:25:10;;;;;;;6.72;6.32;;;23.40;35.00;;;;;;5118493;27;20055;-74
2022/04/05 05:27:38;;;;;;;0.00;0.00;;;23.60;36.00;;;;;;5120267;28;20019;-75
2022/04/05 05:30:07;;;;;;;1.33;1.25;;;23.60;34.80;;;;;;5112718;27;20417;-73
2022/04/05 05:32:46;;;;;;;10.88;5.82;;;23.90;32.90;;;;;;5113697;28;20655;-74
2022/04/05 05:35:16;;;;;;;2.75;2.65;;;24.00;33.10;;;;;;5116657;27;20027;-75
2022/04/05 05:37:43;;;;;;;2.03;1.92;;;24.10;33.70;;;;;;5099516;28;20024;-74
2022/04/05 05:40:11;;;;;;;1.73;1.63;;;24.10;32.30;;;;;;5115182;27;20020;-75
2022/04/05 05:43:01;;;;;;;0.28;0.28;;;24.20;32.30;;;;;;5102631;28;20027;-74
2022/04/05 05:45:28;;;;;;;3.15;2.67;;;24.20;30.90;;;;;;5118419;27;20153;-73
2022/04/05 05:47:54;;;;;;;0.22;0.22;;;24.20;31.20;;;;;;5095529;28;20022;-74
2022/04/05 05:50:22;;;;;;;7.57;2.28;;;24.30;30.40;;;;;;5119093;27;20509;-74
2022/04/05 05:52:48;;;;;;;0.28;0.28;;;24.40;30.30;;;;;;5097711;27;20024;-74
2022/04/05 05:55:17;;;;;;;0.52;0.40;;;24.30;29.80;;;;;;5113167;28;20528;-74
2022/04/05 05:57:43;;;;;;;18.48;8.32;;;24.20;30.10;;;;;;5121179;27;20020;-73
2022/04/05 06:00:17;;;;;;;14.65;2.40;;;24.30;30.10;;;;;;5116646;27;20019;-73
2022/04/05 06:02:43;;;;;;;11.30;0.90;;;24.40;30.10;;;;;;5099691;27;20032;-73
2022/04/05 06:05:11;;;;;;;0.00;0.00;;;24.50;29.40;;;;;;5115638;27;20023;-75
2022/04/05 06:07:37;;;;;;;2.25;2.15;;;24.40;30.00;;;;;;5116324;27;20545;-74
2022/04/05 06:10:05;;;;;;;1.95;0.20;;;24.50;30.50;;;;;;5114057;28;20035;-74
2022/04/05 06:12:31;;;;;;;2.67;1.15;;;24.60;30.80;;;;;;5118555;27;20023;-73
2022/04/05 06:14:58;;;;;;;4.25;4.05;;;24.50;30.70;;;;;;5099372;28;20040;-75
2022/04/05 06:17:24;;;;;;;2.17;2.08;;;24.50;31.20;;;;;;5104349;27;20019;-74
2022/04/05 06:19:53;;;;;;;3.83;1.00;;;24.50;31.00;;;;;;5121037;27;20032;-75
2022/04/05 06:22:19;;;;;;;0.00;0.00;;;24.50;31.20;;;;;;5102537;28;20502;-72
2022/04/05 06:24:46;;;;;;;0.32;0.32;;;24.50;31.20;;;;;;5095562;28;20027;-73
2022/04/05 06:27:13;;;;;;;0.22;0.22;;;24.60;31.20;;;;;;5121758;27;20019;-73
2022/04/05 06:29:39;;;;;;;1.00;1.00;;;24.60;30.90;;;;;;5124820;27;20365;-73
2022/04/05 06:32:06;;;;;;;0.20;0.20;;;24.60;30.40;;;;;;5119643;27;20020;-73
2022/04/05 06:34:32;;;;;;;0.20;0.20;;;24.60;30.30;;;;;;5131398;27;20023;-73
2022/04/05 06:36:58;;;;;;;0.77;0.77;;;24.50;30.90;;;;;;5128879;27;20472;-73
2022/04/05 06:39:25;;;;;;;0.00;0.00;;;24.60;30.10;;;;;;5099262;27;20051;-74
2022/04/05 06:41:52;;;;;;;0.00;0.00;;;24.50;30.90;;;;;;5123364;27;20042;-75
2022/04/05 06:44:19;;;;;;;0.00;0.00;;;24.70;30.40;;;;;;5118089;27;20016;-75
2022/04/05 06:46:45;;;;;;;0.00;0.00;;;24.80;30.00;;;;;;5120878;27;20027;-73
2022/04/05 06:49:12;;;;;;;0.22;0.22;;;24.90;29.90;;;;;;5125277;27;20110;-74
2022/04/05 06:51:38;;;;;;;0.10;0.10;;;24.90;31.70;;;;;;5100946;27;20037;-74
2022/04/05 06:54:05;;;;;;;0.10;0.10;;;24.80;30.10;;;;;;5118152;27;20019;-74
2022/04/05 06:56:31;;;;;;;2.30;1.65;;;24.80;30.90;;;;;;5123828;27;20075;-74
2022/04/05 06:58:57;;;;;;;4.25;2.80;;;24.80;31.10;;;;;;5119683;27;20035;-74
2022/04/05 07:01:23;;;;;;;0.80;0.75;;;24.80;31.30;;;;;;5105082;27;20046;-74
2022/04/05 07:03:49;;;;;;;1.92;1.10;;;24.80;32.30;;;;;;5103278;27;20519;-73
2022/04/05 07:06:15;;;;;;;0.10;0.10;;;24.80;32.80;;;;;;5119184;27;20427;-74
2022/04/05 07:08:41;;;;;;;35.83;32.90;;;24.80;33.30;;;;;;5114624;27;20512;-75
2022/04/05 07:11:07;;;;;;;23.27;1.65;;;24.90;34.50;;;;;;5124066;27;20022;-74
2022/04/05 07:13:33;;;;;;;1.95;0.40;;;24.90;35.00;;;;;;5109179;27;20034;-73
2022/04/05 07:15:59;;;;;;;0.43;0.43;;;25.10;34.30;;;;;;5102924;27;20043;-74
2022/04/05 07:18:26;;;;;;;0.00;0.00;;;25.00;34.00;;;;;;5110945;27;20110;-74
2022/04/05 07:20:52;;;;;;;2.53;1.55;;;25.10;32.40;;;;;;5110960;27;20019;-73
2022/04/05 07:23:19;;;;;;;0.13;0.13;;;25.20;32.10;;;;;;5089832;28;20027;-72
2022/04/05 07:25:45;;;;;;;0.00;0.00;;;25.30;32.50;;;;;;5109722;27;20591;-72
2022/04/05 07:28:11;;;;;;;0.10;0.10;;;25.20;31.60;;;;;;5116349;27;20046;-72
2022/04/05 07:30:37;;;;;;;0.00;0.00;;;25.20;33.10;;;;;;5096977;27;20032;-75
2022/04/05 07:33:03;;;;;;;20.08;14.35;;;25.20;33.80;;;;;;5115450;27;20028;-72
2022/04/05 07:35:30;;;;;;;0.00;0.00;;;25.30;33.10;;;;;;5113282;27;20034;-74
2022/04/05 07:37:56;;;;;;;0.00;0.00;;;25.20;33.40;;;;;;5110121;27;20028;-75
2022/04/05 07:40:22;;;;;;;1.95;1.65;;;25.30;32.60;;;;;;5106780;27;20055;-74
2022/04/05 07:42:48;;;;;;;0.00;0.00;;;25.40;33.90;;;;;;5106060;27;20097;-73
2022/04/05 07:45:16;;;;;;;0.00;0.00;;;25.30;34.80;;;;;;5109398;27;20031;-75
2022/04/05 07:47:43;;;;;;;0.57;0.50;;;25.20;35.00;;;;;;5111997;27;20053;-74
2022/04/05 07:50:10;;;;;;;0.63;0.63;;;25.10;34.70;;;;;;5107615;27;20140;-74
2022/04/05 07:52:36;;;;;;;8.63;5.47;;;25.10;34.40;;;;;;5101507;27;20023;-72
2022/04/05 07:55:02;;;;;;;0.20;0.20;;;25.10;35.60;;;;;;5093038;27;20034;-73
2022/04/05 07:57:28;;;;;;;0.08;0.08;;;25.00;35.90;;;;;;5117631;27;20028;-74
2022/04/05 07:59:57;;;;;;;0.00;0.00;;;25.20;32.60;;;;;;5092825;28;20083;-73
2022/04/05 08:02:23;;;;;;;0.00;0.00;;;25.40;29.60;;;;;;5105648;27;20034;-74
2022/04/05 08:04:49;;;;;;;2.33;2.22;;;25.70;28.80;;;;;;5105180;27;20099;-74
2022/04/05 08:07:15;;;;;;;0.20;0.10;;;25.70;29.60;;;;;;5109763;27;20047;-73
2022/04/05 08:09:41;;;;;;;7.45;0.73;;;25.60;30.00;;;;;;5101397;27;20028;-73
2022/04/05 08:12:08;;;;;;;0.00;0.00;;;25.60;29.90;;;;;;5081620;27;20031;-72
2022/04/05 08:14:34;;;;;;;25.13;1.65;;;25.70;30.80;;;;;;5103623;27;20097;-71
2022/04/05 08:17:01;;;;;;;1.10;0.85;;;25.80;31.90;;;;;;5081780;28;20028;-74
2022/04/05 08:19:27;;;;;;;7.13;1.17;;;25.60;32.10;;;;;;5101504;27;20031;-74
2022/04/05 08:21:53;;;;;;;0.00;0.00;;;25.50;32.30;;;;;;5102946;28;20023;-74
2022/04/05 08:24:20;;;;;;;2.88;2.72;;;25.60;31.90;;;;;;5092434;27;20056;-71
2022/04/05 08:26:47;;;;;;;0.00;0.00;;;25.70;31.80;;;;;;5091395;28;20103;-73
2022/04/05 08:29:13;;;;;;;7.68;3.85;;;25.70;32.20;;;;;;5104246;27;20089;-72
2022/04/05 08:31:39;;;;;;;0.10;0.10;;;25.70;32.60;;;;;;5101766;27;20024;-73
2022/04/05 08:34:06;;;;;;;1.13;0.65;;;25.80;32.60;;;;;;5084756;28;20024;-72
2022/04/05 08:36:32;;;;;;;1.98;1.35;;;25.90;31.70;;;;;;5080245;28;20035;-72
2022/04/05 08:38:58;;;;;;;0.05;0.05;;;26.10;30.70;;;;;;5099613;27;20030;-74
2022/04/05 08:41:27;;;;;;;0.00;0.00;;;26.10;30.10;;;;;;5081165;28;20032;-72
2022/04/05 08:43:54;;;;;;;0.77;0.77;;;26.00;30.10;;;;;;5108422;27;20037;-71
2022/04/05 08:46:21;;;;;;;0.00;0.00;;;26.00;30.70;;;;;;5103675;27;20051;-72
2022/04/05 08:48:50;;;;;;;10.48;4.53;;;26.00;30.10;;;;;;5086622;28;20074;-73
2022/04/05 08:51:16;;;;;;;1.75;0.30;;;25.90;30.20;;;;;;5095885;27;20111;-71
2022/04/05 08:53:43;;;;;;;0.22;0.22;;;26.00;30.80;;;;;;5097608;27;20142;-72
2022/04/05 08:56:09;;;;;;;1.95;0.75;;;26.10;30.30;;;;;;5087681;27;20024;-73
2022/04/05 08:58:36;;;;;;;0.22;0.15;;;26.10;29.60;;;;;;5106869;28;20074;-74
2022/04/05 09:01:02;;;;;;;0.00;0.00;;;26.20;29.00;;;;;;5102213;27;20027;-72
2022/04/05 09:03:32;;;;;;;0.00;0.00;;;26.20;30.20;;;;;;5101775;27;20030;-73
2022/04/05 09:06:18;;;;;;;0.75;0.75;;;26.10;30.00;;;;;;5091652;28;20107;-72
2022/04/05 09:08:47;;;;;;;0.00;0.00;;;26.10;30.30;;;;;;5075152;28;20036;-73
2022/04/05 09:11:20;;;;;;;0.05;0.05;;;26.20;29.30;;;;;;5094211;28;20048;-71
2022/04/05 09:14:00;;;;;;;0.52;0.52;;;26.30;29.70;;;;;;5100066;28;20037;-75
2022/04/05 09:16:31;;;;;;;4.78;3.35;;;26.30;30.10;;;;;;5085389;28;20485;-73
2022/04/05 09:18:58;;;;;;;0.00;0.00;;;26.30;31.20;;;;;;5077564;28;20035;-72
2022/04/05 09:21:24;;;;;;;0.00;0.00;;;26.20;30.80;;;;;;5078745;28;20401;-71
2022/04/05 09:23:53;;;;;;;0.35;0.35;;;26.00;30.80;;;;;;5102060;28;20028;-72
2022/04/05 09:26:20;;;;;;;0.00;0.00;;;26.00;30.30;;;;;;5080318;28;20026;-72
2022/04/05 09:28:48;;;;;;;0.00;0.00;;;26.10;29.80;;;;;;5103763;28;20398;-71
2022/04/05 09:31:22;;;;;;;0.52;0.50;;;26.10;30.50;;;;;;5101779;28;20032;-73
2022/04/05 09:34:08;;;;;;;13.70;6.97;;;26.00;32.20;;;;;;5099903;28;20046;-71
2022/04/05 09:36:56;;;;;;;1.73;1.63;;;26.00;31.50;;;;;;5110867;28;20026;-75
2022/04/05 09:39:24;;;;;;;1.48;1.38;;;26.00;31.00;;;;;;5097830;28;20549;-71
2022/04/05 09:42:03;;;;;;;12.70;11.95;;;26.10;31.40;;;;;;5074896;28;20036;-71
2022/04/05 09:44:34;;;;;;;0.00;0.00;;;26.00;30.40;;;;;;5104181;28;20020;-73
2022/04/05 09:47:18;;;;;;;58.90;16.27;;;25.90;30.00;;;;;;5109432;28;20077;-73
2022/04/05 09:49:45;;;;;;;3.03;2.83;;;25.80;30.20;;;;;;5080876;28;20065;-74
2022/04/05 10:03:19;;;;;;;2.83;0.50;;;25.70;29.70;;;;;;5128144;27;20693;-83
2022/04/05 10:05:54;;;;;;;3.75;2.50;;;25.60;32.80;;;;;;5104102;28;20096;-83
2022/04/05 10:08:21;;;;;;;0.00;0.00;;;25.50;32.50;;;;;;5101499;28;20038;-81
2022/04/05 10:10:52;;;;;;;1.45;0.50;;;25.60;30.50;;;;;;5099537;28;20050;-80
2022/04/05 10:13:19;;;;;;;1.67;1.58;;;25.50;31.40;;;;;;5115149;28;20482;-79
2022/04/05 10:15:48;;;;;;;0.00;0.00;;;25.50;31.90;;;;;;5104747;28;20114;-81
2022/04/05 10:18:20;;;;;;;1.73;0.80;;;25.60;32.80;;;;;;5112206;28;20024;-80
2022/04/05 10:20:51;;;;;;;0.00;0.00;;;25.70;30.10;;;;;;5095776;28;20350;-81
2022/04/05 10:23:52;;;;;;;0.00;0.00;;;25.70;29.80;;;;;;5103808;28;20413;-82
2022/04/05 10:26:27;;;;;;;0.10;0.10;;;25.70;29.90;;;;;;5095392;28;20130;-80
2022/04/05 10:28:58;;;;;;;0.40;0.40;;;25.80;28.70;;;;;;5093567;28;20027;-82
2022/04/05 10:31:48;;;;;;;0.10;0.00;;;25.60;29.20;;;;;;5116361;28;20031;-80
2022/04/05 10:34:20;;;;;;;0.00;0.00;;;25.60;28.00;;;;;;5114325;28;20026;-84
2022/04/05 10:37:18;;;;;;;12.60;0.63;;;25.60;28.50;;;;;;5114243;28;20043;-82
2022/04/05 10:39:59;;;;;;;0.65;0.65;;;25.60;28.20;;;;;;5099829;28;20032;-80
2022/04/05 10:42:36;;;;;;;0.20;0.20;;;25.60;27.90;;;;;;5108172;28;20029;-82
2022/04/05 10:45:14;;;;;;;4.72;4.38;;;25.60;27.90;;;;;;5095008;28;20027;-78
2022/04/05 10:48:05;;;;;;;0.00;0.00;;;25.60;26.70;;;;;;5116554;28;20031;-82
2022/04/05 10:50:32;;;;;;;0.00;0.00;;;25.40;24.50;;;;;;5116102;28;20035;-78
2022/04/05 10:53:19;;;;;;;0.55;0.55;;;25.40;26.50;;;;;;5104352;28;20073;-82
2022/04/05 10:56:03;;;;;;;4.90;0.65;;;25.40;26.40;;;;;;5120211;28;20095;-82
2022/04/05 10:58:31;;;;;;;0.13;0.13;;;25.20;26.40;;;;;;5100581;28;20031;-81
2022/04/05 11:01:32;;;;;;;0.70;0.70;;;25.20;26.90;;;;;;5112311;28;20031;-81
2022/04/05 11:04:17;;;;;;;0.10;0.10;;;25.10;27.20;;;;;;5104349;28;20046;-78
2022/04/05 11:07:01;;;;;;;40.63;4.80;;;25.20;26.40;;;;;;5101422;28;20020;-79
2022/04/05 11:09:34;;;;;;;0.05;0.05;;;25.20;27.30;;;;;;5095677;28;20477;-81
2022/04/05 11:12:25;;;;;;;0.00;0.00;;;25.10;27.90;;;;;;5087526;28;20509;-79
2022/04/05 11:14:54;;;;;;;0.82;0.82;;;25.10;27.80;;;;;;5102152;28;20120;-78
2022/04/05 11:17:25;;;;;;;0.00;0.00;;;25.00;27.90;;;;;;5106037;28;20020;-80
2022/04/05 11:19:58;;;;;;;0.00;0.00;;;25.20;27.90;;;;;;5101552;28;20107;-84
2022/04/05 11:22:29;;;;;;;0.00;0.00;;;25.20;27.70;;;;;;5104913;28;20028;-82
2022/04/05 11:25:06;;;;;;;0.00;0.00;;;25.20;27.10;;;;;;5101437;28;20024;-83
2022/04/05 11:27:35;;;;;;;0.10;0.10;;;25.30;27.30;;;;;;5086454;28;20122;-81
2022/04/05 11:30:23;;;;;;;0.00;0.00;;;25.20;27.40;;;;;;5100922;28;20035;-82
2022/04/05 11:33:14;;;;;;;0.00;0.00;;;25.20;27.70;;;;;;5081914;28;21471;-82
2022/04/05 11:35:49;;;;;;;0.00;0.00;;;25.10;28.30;;;;;;5103678;28;20034;-82
2022/04/05 11:38:18;;;;;;;0.63;0.50;;;25.10;28.90;;;;;;5102670;28;20020;-78
2022/04/05 11:41:00;;;;;;;0.85;0.85;;;25.10;28.20;;;;;;5101154;28;20027;-79
2022/04/05 11:43:34;;;;;;;0.55;0.55;;;25.10;28.10;;;;;;5083786;28;20119;-80
2022/04/05 11:46:17;;;;;;;0.00;0.00;;;25.00;28.70;;;;;;5087478;28;20032;-81
2022/04/05 11:48:48;;;;;;;0.00;0.00;;;25.10;28.90;;;;;;5096553;28;20373;-82
2022/04/05 11:51:16;;;;;;;0.03;0.03;;;24.90;29.20;;;;;;5082180;28;20027;-84
2022/04/05 11:53:44;;;;;;;0.20;0.10;;;25.10;28.90;;;;;;5097961;28;20394;-80
2022/04/05 11:56:25;;;;;;;0.00;0.00;;;25.00;29.30;;;;;;5082147;28;20031;-80
2022/04/05 11:58:56;;;;;;;10.95;8.48;;;25.00;29.00;;;;;;5099400;28;20042;-83
2022/04/05 12:01:33;;;;;;;0.45;0.45;;;24.90;29.50;;;;;;5094390;28;20418;-81
2022/04/05 12:04:01;;;;;;;19.70;18.50;;;24.80;29.60;;;;;;5100375;28;20036;-79
2022/04/05 12:06:34;;;;;;;0.10;0.00;;;24.80;30.50;;;;;;5097453;28;20059;-81
2022/04/05 12:09:08;;;;;;;0.47;0.47;;;24.60;31.40;;;;;;5083475;28;20032;-81
2022/04/05 12:11:36;;;;;;;2.00;1.95;;;24.60;31.10;;;;;;5089202;28;20103;-80
2022/04/05 12:14:12;;;;;;;0.00;0.00;;;24.50;30.10;;;;;;5099892;28;20086;-80
2022/04/05 12:16:58;;;;;;;0.00;0.00;;;24.50;30.30;;;;;;5097133;28;20051;-80
2022/04/05 12:19:34;;;;;;;0.00;0.00;;;24.60;31.60;;;;;;5098582;28;20024;-80
2022/04/05 12:22:06;;;;;;;0.40;0.13;;;24.50;30.90;;;;;;5091192;28;20385;-81
2022/04/05 12:24:35;;;;;;;0.00;0.00;;;24.60;31.20;;;;;;5092926;28;20698;-80
2022/04/05 12:27:03;;;;;;;0.00;0.00;;;24.50;31.90;;;;;;5100160;28;20138;-81
2022/04/05 12:29:36;;;;;;;0.00;0.00;;;24.50;31.20;;;;;;5094227;28;20016;-80
2022/04/05 12:32:11;;;;;;;0.00;0.00;;;24.40;31.20;;;;;;5103234;28;20043;-80
2022/04/05 12:34:38;;;;;;;0.00;0.00;;;24.30;32.20;;;;;;5086158;28;20027;-78
2022/04/05 12:37:17;;;;;;;0.13;0.13;;;24.20;31.50;;;;;;5092148;28;20028;-79
2022/04/05 12:39:50;;;;;;;0.00;0.00;;;24.10;31.90;;;;;;5100899;28;20363;-81
2022/04/05 12:42:17;;;;;;;0.00;0.00;;;24.10;32.40;;;;;;5083476;28;20024;-82
2022/04/05 12:44:57;;;;;;;0.00;0.00;;;24.00;32.20;;;;;;5098481;28;20030;-82
2022/04/05 12:47:25;;;;;;;0.00;0.00;;;23.90;32.80;;;;;;5101014;28;20024;-78
2022/04/05 12:49:54;;;;;;;0.00;0.00;;;23.90;33.60;;;;;;5073720;28;20028;-81
2022/04/05 12:52:23;;;;;;;0.20;0.20;;;24.00;34.30;;;;;;5103483;28;20107;-83
2022/04/05 12:54:53;;;;;;;0.00;0.00;;;23.80;33.90;;;;;;5087509;28;20024;-83
2022/04/05 12:57:29;;;;;;;0.00;0.00;;;23.80;34.50;;;;;;5082933;28;20086;-82
2022/04/05 13:00:15;;;;;;;0.00;0.00;;;23.70;35.00;;;;;;5094089;28;20020;-81
2022/04/05 13:02:46;;;;;;;0.00;0.00;;;23.60;34.90;;;;;;5096523;28;20119;-79
2022/04/05 13:08:05;;;;;;;0.00;0.00;;;23.50;36.40;;;;;;5095804;28;20049;-83
2022/04/05 13:10:42;;;;;;;0.52;0.52;;;23.30;36.40;;;;;;5103849;28;20019;-81